sensor_id;sensor_type;location;lat;lon;timestamp;pressure;altitude;pressure_sealevel;temperature;humidity
4449;BME280;2237;51.870;6.160;2022-10-17T00:01:21;101542.06;;;16.16;100.00
4449;BME280;2237;51.870;6.160;2022-10-17T00:03:47;101539.44;;;16.16;100.00
4449;BME280;2237;51.870;6.160;2022-10-17T00:06:14;101541.97;;;16.19;100.00
4449;BME280;2237;51.870;6.160;2022-10-17T00:08:41;101525.47;;;16.14;100.00
4449;BME280;2237;51.870;6.160;2022-10-17T00:11:17;101538.47;;;16.19;100.00
4449;BME280;2237;51.870;6.160;2022-10-17T00:13:45;101539.44;;;16.16;100.00
4449;BME280;2237;51.870;6.160;2022-10-17T00:16:12;101534.09;;;16.19;100.00
4449;BME280;2237;51.870;6.160;2022-10-17T00:18:39;101531.44;;;16.19;100.00
4449;BME280;2237;51.870;6.160;2022-10-17T00:21:05;101520.88;;;16.21;100.00
4449;BME280;2237;51.870;6.160;2022-10-17T00:23:39;101523.50;;;16.21;100.00
4449;BME280;2237;51.870;6.160;2022-10-17T00:26:06;101509.50;;;16.20;100.00
4449;BME280;2237;51.870;6.160;2022-10-17T00:28:32;101511.16;;;16.23;100.00
4449;BME280;2237;51.870;6.160;2022-10-17T00:31:02;101513.69;;;16.26;100.00
4449;BME280;2237;51.870;6.160;2022-10-17T00:33:29;101520.69;;;16.25;100.00
4449;BME280;2237;51.870;6.160;2022-10-17T00:36:07;101519.03;;;16.23;100.00
4449;BME280;2237;51.870;6.160;2022-10-17T00:38:35;101530.41;;;16.23;100.00
4449;BME280;2237;51.870;6.160;2022-10-17T00:41:02;101518.13;;;16.24;100.00
4449;BME280;2237;51.870;6.160;2022-10-17T00:43:30;101524.16;;;16.27;100.00
4449;BME280;2237;51.870;6.160;2022-10-17T00:45:56;101522.50;;;16.25;100.00
4449;BME280;2237;51.870;6.160;2022-10-17T00:48:23;101520.59;;;16.28;100.00
4449;BME280;2237;51.870;6.160;2022-10-17T00:50:51;101513.78;;;16.23;100.00
4449;BME280;2237;51.870;6.160;2022-10-17T00:53:18;101526.06;;;16.22;100.00
4449;BME280;2237;51.870;6.160;2022-10-17T00:55:49;101518.94;;;16.26;100.00
4449;BME280;2237;51.870;6.160;2022-10-17T00:58:16;101514.41;;;16.31;100.00
4449;BME280;2237;51.870;6.160;2022-10-17T01:00:45;101509.19;;;16.29;100.00
4449;BME280;2237;51.870;6.160;2022-10-17T01:03:12;101504.81;;;16.28;100.00
4449;BME280;2237;51.870;6.160;2022-10-17T01:05:40;101510.09;;;16.28;100.00
4449;BME280;2237;51.870;6.160;2022-10-17T01:08:06;101504.09;;;16.25;100.00
4449;BME280;2237;51.870;6.160;2022-10-17T01:10:44;101512.72;;;16.28;100.00
4449;BME280;2237;51.870;6.160;2022-10-17T01:16:43;101500.19;;;16.36;100.00
4449;BME280;2237;51.870;6.160;2022-10-17T01:30:40;101493.88;;;16.40;100.00
4449;BME280;2237;51.870;6.160;2022-10-17T01:33:12;101497.44;;;16.39;100.00
4449;BME280;2237;51.870;6.160;2022-10-17T01:35:47;101496.50;;;16.40;100.00
4449;BME280;2237;51.870;6.160;2022-10-17T01:38:20;101485.03;;;16.43;100.00
4449;BME280;2237;51.870;6.160;2022-10-17T01:40:53;101491.16;;;16.44;100.00
4449;BME280;2237;51.870;6.160;2022-10-17T01:43:30;101493.75;;;16.45;100.00
4449;BME280;2237;51.870;6.160;2022-10-17T01:46:02;101489.31;;;16.46;100.00
4449;BME280;2237;51.870;6.160;2022-10-17T01:48:36;101487.63;;;16.45;100.00
4449;BME280;2237;51.870;6.160;2022-10-17T01:51:14;101480.53;;;16.47;100.00
4449;BME280;2237;51.870;6.160;2022-10-17T01:53:48;101477.78;;;16.50;100.00
4449;BME280;2237;51.870;6.160;2022-10-17T01:56:18;101482.06;;;16.52;100.00
4449;BME280;2237;51.870;6.160;2022-10-17T01:59:11;101467.81;;;16.59;100.00
4449;BME280;2237;51.870;6.160;2022-10-17T02:01:40;101473.13;;;16.58;100.00
4449;BME280;2237;51.870;6.160;2022-10-17T02:04:08;101458.22;;;16.58;100.00
4449;BME280;2237;51.870;6.160;2022-10-17T02:06:36;101459.97;;;16.58;100.00
4449;BME280;2237;51.870;6.160;2022-10-17T02:11:43;101455.56;;;16.58;100.00
4449;BME280;2237;51.870;6.160;2022-10-17T02:14:24;101464.22;;;16.62;100.00
4449;BME280;2237;51.870;6.160;2022-10-17T02:19:33;101464.09;;;16.65;100.00
4449;BME280;2237;51.870;6.160;2022-10-17T02:22:29;101460.56;;;16.66;100.00
4449;BME280;2237;51.870;6.160;2022-10-17T02:28:05;101473.66;;;16.67;100.00
4449;BME280;2237;51.870;6.160;2022-10-17T02:30:44;101457.09;;;16.65;100.00
4449;BME280;2237;51.870;6.160;2022-10-17T02:33:36;101454.59;;;16.61;100.00
4449;BME280;2237;51.870;6.160;2022-10-17T02:36:09;101465.19;;;16.59;100.00
4449;BME280;2237;51.870;6.160;2022-10-17T02:38:37;101463.53;;;16.57;100.00
4449;BME280;2237;51.870;6.160;2022-10-17T02:41:06;101461.03;;;16.54;100.00
4449;BME280;2237;51.870;6.160;2022-10-17T02:43:36;101464.44;;;16.56;100.00
4449;BME280;2237;51.870;6.160;2022-10-17T02:46:04;101467.88;;;16.58;100.00
4449;BME280;2237;51.870;6.160;2022-10-17T02:48:43;101474.16;;;16.54;100.00
4449;BME280;2237;51.870;6.160;2022-10-17T02:51:27;101463.47;;;16.58;100.00
4449;BME280;2237;51.870;6.160;2022-10-17T02:56:31;101472.16;;;16.60;100.00
4449;BME280;2237;51.870;6.160;2022-10-17T02:59:02;101463.34;;;16.61;100.00
4449;BME280;2237;51.870;6.160;2022-10-17T03:01:31;101462.50;;;16.61;100.00
4449;BME280;2237;51.870;6.160;2022-10-17T03:04:08;101459.75;;;16.64;100.00
4449;BME280;2237;51.870;6.160;2022-10-17T03:06:35;101462.38;;;16.64;100.00
4449;BME280;2237;51.870;6.160;2022-10-17T03:09:02;101456.25;;;16.63;100.00
4449;BME280;2237;51.870;6.160;2022-10-17T03:11:28;101459.75;;;16.64;100.00
4449;BME280;2237;51.870;6.160;2022-10-17T03:13:55;101460.72;;;16.61;100.00
4449;BME280;2237;51.870;6.160;2022-10-17T03:16:21;101452.72;;;16.64;100.00
4449;BME280;2237;51.870;6.160;2022-10-17T03:18:48;101454.50;;;16.64;100.00
4449;BME280;2237;51.870;6.160;2022-10-17T03:21:15;101461.47;;;16.65;100.00
4449;BME280;2237;51.870;6.160;2022-10-17T03:23:42;101457.00;;;16.67;100.00
4449;BME280;2237;51.870;6.160;2022-10-17T03:26:08;101459.72;;;16.65;100.00
4449;BME280;2237;51.870;6.160;2022-10-17T03:28:35;101465.69;;;16.69;100.00
4449;BME280;2237;51.870;6.160;2022-10-17T03:31:14;101468.41;;;16.67;100.00
4449;BME280;2237;51.870;6.160;2022-10-17T03:33:40;101461.38;;;16.68;100.00
4449;BME280;2237;51.870;6.160;2022-10-17T03:36:09;101474.28;;;16.74;100.00
4449;BME280;2237;51.870;6.160;2022-10-17T03:38:37;101470.72;;;16.75;100.00
4449;BME280;2237;51.870;6.160;2022-10-17T03:41:04;101480.13;;;16.82;100.00
4449;BME280;2237;51.870;6.160;2022-10-17T03:43:31;101477.59;;;16.79;100.00
4449;BME280;2237;51.870;6.160;2022-10-17T03:45:58;101478.56;;;16.76;100.00
4449;BME280;2237;51.870;6.160;2022-10-17T03:48:25;101468.91;;;16.77;100.00
4449;BME280;2237;51.870;6.160;2022-10-17T03:50:58;101472.41;;;16.77;100.00
4449;BME280;2237;51.870;6.160;2022-10-17T03:53:25;101478.50;;;16.78;100.00
4449;BME280;2237;51.870;6.160;2022-10-17T03:55:51;101476.59;;;16.83;100.00
4449;BME280;2237;51.870;6.160;2022-10-17T03:58:17;101479.22;;;16.83;100.00
4449;BME280;2237;51.870;6.160;2022-10-17T04:00:44;101475.88;;;16.78;100.00
4449;BME280;2237;51.870;6.160;2022-10-17T04:03:10;101477.59;;;16.79;100.00
4449;BME280;2237;51.870;6.160;2022-10-17T04:05:42;101475.75;;;16.81;100.00
4449;BME280;2237;51.870;6.160;2022-10-17T04:08:09;101474.97;;;16.79;100.00
4449;BME280;2237;51.870;6.160;2022-10-17T04:10:35;101475.88;;;16.78;100.00
4449;BME280;2237;51.870;6.160;2022-10-17T04:13:01;101472.44;;;16.76;100.00
4449;BME280;2237;51.870;6.160;2022-10-17T04:15:28;101472.44;;;16.76;100.00
4449;BME280;2237;51.870;6.160;2022-10-17T04:17:54;101479.44;;;16.77;100.00
4449;BME280;2237;51.870;6.160;2022-10-17T04:20:20;101475.03;;;16.77;100.00
4449;BME280;2237;51.870;6.160;2022-10-17T04:22:47;101473.34;;;16.75;100.00
4449;BME280;2237;51.870;6.160;2022-10-17T04:25:14;101472.34;;;16.79;100.00
4449;BME280;2237;51.870;6.160;2022-10-17T04:27:40;101468.69;;;16.83;100.00
4449;BME280;2237;51.870;6.160;2022-10-17T04:30:07;101459.19;;;16.79;100.00
4449;BME280;2237;51.870;6.160;2022-10-17T04:32:36;101465.13;;;16.84;100.00
4449;BME280;2237;51.870;6.160;2022-10-17T04:35:07;101473.94;;;16.83;100.00
4449;BME280;2237;51.870;6.160;2022-10-17T04:37:33;101468.81;;;16.80;100.00
4449;BME280;2237;51.870;6.160;2022-10-17T04:39:59;101466.19;;;16.80;100.00
4449;BME280;2237;51.870;6.160;2022-10-17T04:42:27;101471.38;;;16.81;100.00
4449;BME280;2237;51.870;6.160;2022-10-17T04:44:54;101474.78;;;16.83;100.00
4449;BME280;2237;51.870;6.160;2022-10-17T04:47:21;101471.25;;;16.84;100.00
4449;BME280;2237;51.870;6.160;2022-10-17T04:49:47;101472.75;;;16.91;100.00
4449;BME280;2237;51.870;6.160;2022-10-17T04:52:13;101482.22;;;16.95;100.00
4449;BME280;2237;51.870;6.160;2022-10-17T04:54:40;101483.16;;;16.94;100.00
4449;BME280;2237;51.870;6.160;2022-10-17T04:57:06;101499.66;;;16.98;100.00
4449;BME280;2237;51.870;6.160;2022-10-17T04:59:33;101509.94;;;17.04;100.00
4449;BME280;2237;51.870;6.160;2022-10-17T05:01:59;101511.59;;;17.07;100.00
4449;BME280;2237;51.870;6.160;2022-10-17T05:04:25;101507.28;;;17.06;100.00
4449;BME280;2237;51.870;6.160;2022-10-17T05:06:52;101509.16;;;17.02;100.00
4449;BME280;2237;51.870;6.160;2022-10-17T05:09:18;101499.66;;;16.98;100.00
4449;BME280;2237;51.870;6.160;2022-10-17T05:11:45;101499.78;;;16.95;100.00
4449;BME280;2237;51.870;6.160;2022-10-17T05:14:11;101513.97;;;16.91;100.00
4449;BME280;2237;51.870;6.160;2022-10-17T05:16:37;101528.81;;;16.92;100.00
4449;BME280;2237;51.870;6.160;2022-10-17T05:19:04;101520.09;;;16.91;100.00
4449;BME280;2237;51.870;6.160;2022-10-17T05:21:30;101525.25;;;16.94;100.00
4449;BME280;2237;51.870;6.160;2022-10-17T05:23:58;101525.53;;;16.87;100.00
4449;BME280;2237;51.870;6.160;2022-10-17T05:26:25;101519.47;;;16.85;100.00
4449;BME280;2237;51.870;6.160;2022-10-17T05:28:51;101513.31;;;16.86;100.00
4449;BME280;2237;51.870;6.160;2022-10-17T05:31:18;101530.09;;;16.82;100.00
4449;BME280;2237;51.870;6.160;2022-10-17T05:33:44;101536.88;;;16.89;100.00
4449;BME280;2237;51.870;6.160;2022-10-17T05:36:11;101534.16;;;16.90;100.00
4449;BME280;2237;51.870;6.160;2022-10-17T05:38:37;101531.47;;;16.92;100.00
4449;BME280;2237;51.870;6.160;2022-10-17T05:41:04;101520.81;;;16.95;100.00
4449;BME280;2237;51.870;6.160;2022-10-17T05:43:32;101523.31;;;17.00;100.00
4449;BME280;2237;51.870;6.160;2022-10-17T05:46:05;101533.06;;;16.96;100.00
4449;BME280;2237;51.870;6.160;2022-10-17T05:48:32;101540.00;;;16.99;100.00
4449;BME280;2237;51.870;6.160;2022-10-17T05:51:00;101540.81;;;17.01;100.00
4449;BME280;2237;51.870;6.160;2022-10-17T05:53:32;101542.59;;;17.00;100.00
4449;BME280;2237;51.870;6.160;2022-10-17T05:56:01;101554.88;;;17.00;100.00
4449;BME280;2237;51.870;6.160;2022-10-17T05:58:27;101538.13;;;17.02;100.00
4449;BME280;2237;51.870;6.160;2022-10-17T06:01:14;101543.59;;;16.96;100.00
4449;BME280;2237;51.870;6.160;2022-10-17T06:03:41;101554.81;;;17.01;100.00
4449;BME280;2237;51.870;6.160;2022-10-17T06:06:09;101545.38;;;16.95;100.00
4449;BME280;2237;51.870;6.160;2022-10-17T06:08:36;101560.88;;;17.03;100.00
4449;BME280;2237;51.870;6.160;2022-10-17T06:11:03;101550.25;;;17.06;100.00
4449;BME280;2237;51.870;6.160;2022-10-17T06:13:35;101547.72;;;17.03;100.00
4449;BME280;2237;51.870;6.160;2022-10-17T06:16:01;101560.78;;;17.06;100.00
4449;BME280;2237;51.870;6.160;2022-10-17T06:18:28;101557.97;;;17.11;100.00
4449;BME280;2237;51.870;6.160;2022-10-17T06:21:01;101568.25;;;17.17;100.00
4449;BME280;2237;51.870;6.160;2022-10-17T06:23:28;101563.88;;;17.17;100.00
4449;BME280;2237;51.870;6.160;2022-10-17T06:25:58;101554.78;;;17.24;100.00
4449;BME280;2237;51.870;6.160;2022-10-17T06:28:25;101570.72;;;17.21;100.00
4449;BME280;2237;51.870;6.160;2022-10-17T06:30:52;101563.50;;;17.26;100.00
4449;BME280;2237;51.870;6.160;2022-10-17T06:33:18;101569.25;;;17.36;100.00
4449;BME280;2237;51.870;6.160;2022-10-17T06:35:53;101569.09;;;17.40;100.00
4449;BME280;2237;51.870;6.160;2022-10-17T06:38:20;101562.91;;;17.41;100.00
4449;BME280;2237;51.870;6.160;2022-10-17T06:40:46;101571.38;;;17.49;100.00
4449;BME280;2237;51.870;6.160;2022-10-17T06:43:12;101570.34;;;17.53;100.00
4449;BME280;2237;51.870;6.160;2022-10-17T06:45:39;101582.56;;;17.56;100.00
4449;BME280;2237;51.870;6.160;2022-10-17T06:48:06;101582.38;;;17.61;100.00
4449;BME280;2237;51.870;6.160;2022-10-17T06:50:33;101574.50;;;17.61;100.00
4449;BME280;2237;51.870;6.160;2022-10-17T06:53:00;101578.16;;;17.57;100.00
4449;BME280;2237;51.870;6.160;2022-10-17T06:55:26;101577.91;;;17.63;100.00
4449;BME280;2237;51.870;6.160;2022-10-17T06:57:54;101575.22;;;17.64;100.00
4449;BME280;2237;51.870;6.160;2022-10-17T07:00:21;101569.09;;;17.64;100.00
4449;BME280;2237;51.870;6.160;2022-10-17T07:02:48;101575.91;;;17.69;100.00
4449;BME280;2237;51.870;6.160;2022-10-17T07:05:15;101568.66;;;17.74;100.00
4449;BME280;2237;51.870;6.160;2022-10-17T07:07:41;101578.28;;;17.75;100.00
4449;BME280;2237;51.870;6.160;2022-10-17T07:10:11;101574.47;;;17.82;100.00
4449;BME280;2237;51.870;6.160;2022-10-17T07:12:38;101559.16;;;17.92;100.00
4449;BME280;2237;51.870;6.160;2022-10-17T07:15:04;101570.22;;;18.00;100.00
4449;BME280;2237;51.870;6.160;2022-10-17T07:17:31;101582.91;;;18.12;100.00
4449;BME280;2237;51.870;6.160;2022-10-17T07:19:58;101579.91;;;18.21;100.00
4449;BME280;2237;51.870;6.160;2022-10-17T07:22:24;101575.28;;;18.26;100.00
4449;BME280;2237;51.870;6.160;2022-10-17T07:24:51;101579.91;;;18.21;100.00
4449;BME280;2237;51.870;6.160;2022-10-17T07:27:17;101584.78;;;18.30;100.00
4449;BME280;2237;51.870;6.160;2022-10-17T07:29:43;101591.31;;;18.42;100.00
4449;BME280;2237;51.870;6.160;2022-10-17T07:32:10;101593.06;;;18.43;100.00
4449;BME280;2237;51.870;6.160;2022-10-17T07:34:36;101603.41;;;18.47;100.00
4449;BME280;2237;51.870;6.160;2022-10-17T07:37:03;101590.03;;;18.52;100.00
4449;BME280;2237;51.870;6.160;2022-10-17T07:39:29;101599.53;;;18.56;100.00
4449;BME280;2237;51.870;6.160;2022-10-17T07:41:55;101597.28;;;18.67;100.00
4449;BME280;2237;51.870;6.160;2022-10-17T07:44:24;101601.56;;;18.70;100.00
4449;BME280;2237;51.870;6.160;2022-10-17T07:46:50;101596.44;;;18.67;100.00
4449;BME280;2237;51.870;6.160;2022-10-17T07:49:16;101594.34;;;18.75;100.00
4449;BME280;2237;51.870;6.160;2022-10-17T07:51:43;101608.31;;;18.77;100.00
4449;BME280;2237;51.870;6.160;2022-10-17T07:54:09;101610.69;;;18.83;100.00
4449;BME280;2237;51.870;6.160;2022-10-17T07:56:39;101609.59;;;18.87;100.00
4449;BME280;2237;51.870;6.160;2022-10-17T07:59:08;101618.91;;;18.75;100.00
4449;BME280;2237;51.870;6.160;2022-10-17T08:01:35;101631.28;;;18.75;100.00
4449;BME280;2237;51.870;6.160;2022-10-17T08:04:02;101635.59;;;18.76;100.00
4449;BME280;2237;51.870;6.160;2022-10-17T08:06:32;101649.28;;;18.65;100.00
4449;BME280;2237;51.870;6.160;2022-10-17T08:08:59;101658.44;;;18.56;100.00
4449;BME280;2237;51.870;6.160;2022-10-17T08:11:26;101648.94;;;18.52;100.00
4449;BME280;2237;51.870;6.160;2022-10-17T08:13:53;101647.56;;;18.42;100.00
4449;BME280;2237;51.870;6.160;2022-10-17T08:16:19;101657.94;;;18.47;100.00
4449;BME280;2237;51.870;6.160;2022-10-17T08:18:45;101666.41;;;18.55;100.00
4449;BME280;2237;51.870;6.160;2022-10-17T08:21:12;101690.09;;;18.56;100.00
4449;BME280;2237;51.870;6.160;2022-10-17T08:23:39;101699.88;;;18.54;100.00
4449;BME280;2237;51.870;6.160;2022-10-17T08:26:06;101704.31;;;18.52;100.00
4449;BME280;2237;51.870;6.160;2022-10-17T08:28:38;101712.91;;;18.57;100.00
4449;BME280;2237;51.870;6.160;2022-10-17T08:31:10;101727.66;;;18.63;100.00
4449;BME280;2237;51.870;6.160;2022-10-17T08:33:36;101739.16;;;18.60;100.00
4449;BME280;2237;51.870;6.160;2022-10-17T08:36:04;101723.31;;;18.60;100.00
4449;BME280;2237;51.870;6.160;2022-10-17T08:38:31;101736.66;;;18.57;100.00
4449;BME280;2237;51.870;6.160;2022-10-17T08:41:13;101734.75;;;18.61;100.00
4449;BME280;2237;51.870;6.160;2022-10-17T08:46:18;101739.34;;;18.56;100.00
4449;BME280;2237;51.870;6.160;2022-10-17T08:48:45;101736.59;;;18.59;100.00
4449;BME280;2237;51.870;6.160;2022-10-17T08:53:54;101752.66;;;18.75;100.00
4449;BME280;2237;51.870;6.160;2022-10-17T08:56:29;101763.47;;;18.69;100.00
4449;BME280;2237;51.870;6.160;2022-10-17T08:59:20;101774.16;;;18.66;100.00
4449;BME280;2237;51.870;6.160;2022-10-17T09:01:58;101784.38;;;18.73;100.00
4449;BME280;2237;51.870;6.160;2022-10-17T09:04:48;101796.78;;;18.71;100.00
4449;BME280;2237;51.870;6.160;2022-10-17T09:19:03;101795.25;;;18.66;100.00
4449;BME280;2237;51.870;6.160;2022-10-17T09:21:43;101791.69;;;18.67;100.00
4449;BME280;2237;51.870;6.160;2022-10-17T09:24:22;101797.59;;;18.73;100.00
4449;BME280;2237;51.870;6.160;2022-10-17T09:26:51;101784.06;;;18.81;100.00
4449;BME280;2237;51.870;6.160;2022-10-17T09:29:23;101793.53;;;18.86;100.00
4449;BME280;2237;51.870;6.160;2022-10-17T09:32:02;101784.88;;;18.83;100.00
4449;BME280;2237;51.870;6.160;2022-10-17T09:34:31;101780.25;;;18.88;100.00
4449;BME280;2237;51.870;6.160;2022-10-17T09:36:58;101787.13;;;18.92;100.00
4449;BME280;2237;51.870;6.160;2022-10-17T09:39:26;101786.75;;;19.01;100.00
4449;BME280;2237;51.870;6.160;2022-10-17T09:41:58;101794.72;;;18.99;100.00
4449;BME280;2237;51.870;6.160;2022-10-17T09:44:33;101804.50;;;18.97;100.00
4449;BME280;2237;51.870;6.160;2022-10-17T09:49:37;101795.59;;;19.00;100.00
4449;BME280;2237;51.870;6.160;2022-10-17T09:52:09;101807.03;;;19.00;100.00
4449;BME280;2237;51.870;6.160;2022-10-17T09:54:43;101818.69;;;18.95;100.00
4449;BME280;2237;51.870;6.160;2022-10-17T09:57:11;101872.03;;;18.81;100.00
4449;BME280;2237;51.870;6.160;2022-10-17T09:59:41;101884.91;;;18.67;100.00
4449;BME280;2237;51.870;6.160;2022-10-17T10:07:35;101813.13;;;18.59;100.00
4449;BME280;2237;51.870;6.160;2022-10-17T10:10:04;101797.16;;;18.62;100.00
4449;BME280;2237;51.870;6.160;2022-10-17T10:12:37;101780.22;;;18.68;100.00
4449;BME280;2237;51.870;6.160;2022-10-17T10:15:33;101788.75;;;18.74;100.00
4449;BME280;2237;51.870;6.160;2022-10-17T10:18:00;101824.97;;;18.71;100.00
4449;BME280;2237;51.870;6.160;2022-10-17T10:20:35;101817.28;;;18.86;100.00
4449;BME280;2237;51.870;6.160;2022-10-17T10:23:14;101825.66;;;18.96;100.00
4449;BME280;2237;51.870;6.160;2022-10-17T10:26:02;101830.56;;;19.05;100.00
4449;BME280;2237;51.870;6.160;2022-10-17T10:28:34;101848.81;;;19.11;100.00
4449;BME280;2237;51.870;6.160;2022-10-17T10:31:05;101858.84;;;19.03;100.00
4449;BME280;2237;51.870;6.160;2022-10-17T10:33:34;101880.38;;;18.92;100.00
4449;BME280;2237;51.870;6.160;2022-10-17T10:36:07;101865.09;;;18.79;100.00
4449;BME280;2237;51.870;6.160;2022-10-17T10:38:38;101846.25;;;18.88;100.00
4449;BME280;2237;51.870;6.160;2022-10-17T10:41:07;101849.00;;;19.06;100.00
4449;BME280;2237;51.870;6.160;2022-10-17T10:43:37;101853.63;;;19.22;100.00
4449;BME280;2237;51.870;6.160;2022-10-17T10:48:50;101841.66;;;19.13;100.00
4449;BME280;2237;51.870;6.160;2022-10-17T10:51:22;101860.97;;;19.15;100.00
4449;BME280;2237;51.870;6.160;2022-10-17T10:54:07;101857.38;;;19.16;100.00
4449;BME280;2237;51.870;6.160;2022-10-17T10:56:39;101861.75;;;19.17;100.00
4449;BME280;2237;51.870;6.160;2022-10-17T10:59:19;101871.47;;;19.16;100.00
4449;BME280;2237;51.870;6.160;2022-10-17T11:04:43;101885.72;;;19.12;100.00
4449;BME280;2237;51.870;6.160;2022-10-17T11:07:28;101877.53;;;19.18;100.00
4449;BME280;2237;51.870;6.160;2022-10-17T11:10:02;101874.72;;;19.23;100.00
4449;BME280;2237;51.870;6.160;2022-10-17T11:12:37;101880.53;;;19.31;100.00
4449;BME280;2237;51.870;6.160;2022-10-17T11:15:44;101881.66;;;19.47;100.00
4449;BME280;2237;51.870;6.160;2022-10-17T11:18:29;101892.69;;;19.57;100.00
4449;BME280;2237;51.870;6.160;2022-10-17T11:21:05;101891.09;;;19.53;100.00
4449;BME280;2237;51.870;6.160;2022-10-17T11:23:45;101893.75;;;19.53;100.00
4449;BME280;2237;51.870;6.160;2022-10-17T11:26:19;101907.13;;;19.48;100.00
4449;BME280;2237;51.870;6.160;2022-10-17T11:28:55;101909.53;;;19.54;100.00
4449;BME280;2237;51.870;6.160;2022-10-17T11:31:26;101905.88;;;19.57;100.00
4449;BME280;2237;51.870;6.160;2022-10-17T11:36:33;101901.00;;;19.68;100.00
4449;BME280;2237;51.870;6.160;2022-10-17T11:39:04;101904.38;;;19.71;100.00
4449;BME280;2237;51.870;6.160;2022-10-17T11:44:20;101921.69;;;19.58;100.00
4449;BME280;2237;51.870;6.160;2022-10-17T11:46:54;101931.56;;;19.53;100.00
4449;BME280;2237;51.870;6.160;2022-10-17T11:49:35;101934.56;;;19.46;100.00
4449;BME280;2237;51.870;6.160;2022-10-17T11:52:50;101942.16;;;19.53;100.00
4449;BME280;2237;51.870;6.160;2022-10-17T11:55:25;101947.63;;;19.49;100.00
4449;BME280;2237;51.870;6.160;2022-10-17T12:06:56;101951.56;;;19.17;100.00
4449;BME280;2237;51.870;6.160;2022-10-17T12:12:08;101943.38;;;19.23;100.00
4449;BME280;2237;51.870;6.160;2022-10-17T12:14:44;101949.22;;;19.31;100.00
4449;BME280;2237;51.870;6.160;2022-10-17T12:17:31;101952.06;;;19.48;100.00
4449;BME280;2237;51.870;6.160;2022-10-17T12:22:47;101947.16;;;19.39;100.00
4449;BME280;2237;51.870;6.160;2022-10-17T12:25:21;101950.69;;;19.38;100.00
4449;BME280;2237;51.870;6.160;2022-10-17T12:27:49;101957.81;;;19.36;100.00
4449;BME280;2237;51.870;6.160;2022-10-17T12:30:19;101953.38;;;19.37;100.00
4449;BME280;2237;51.870;6.160;2022-10-17T12:33:09;101954.25;;;19.37;100.00
4449;BME280;2237;51.870;6.160;2022-10-17T12:35:44;101950.06;;;19.32;100.00
4449;BME280;2237;51.870;6.160;2022-10-17T12:51:16;101964.81;;;19.37;100.00
4449;BME280;2237;51.870;6.160;2022-10-17T12:54:07;101965.72;;;19.36;100.00
4449;BME280;2237;51.870;6.160;2022-10-17T12:56:45;101962.50;;;19.51;100.00
4449;BME280;2237;51.870;6.160;2022-10-17T12:59:21;101962.03;;;19.62;100.00
4449;BME280;2237;51.870;6.160;2022-10-17T13:01:52;101956.31;;;19.72;100.00
4449;BME280;2237;51.870;6.160;2022-10-17T13:04:20;101964.91;;;19.78;100.00
4449;BME280;2237;51.870;6.160;2022-10-17T13:06:53;101966.44;;;19.83;100.00
4449;BME280;2237;51.870;6.160;2022-10-17T13:11:50;101974.19;;;19.88;100.00
4449;BME280;2237;51.870;6.160;2022-10-17T13:14:18;101979.88;;;19.79;100.00
4449;BME280;2237;51.870;6.160;2022-10-17T13:16:56;101972.94;;;19.76;100.00
4449;BME280;2237;51.870;6.160;2022-10-17T13:19:30;101971.94;;;19.79;100.00
4449;BME280;2237;51.870;6.160;2022-10-17T13:21:59;101975.22;;;19.84;100.00
4449;BME280;2237;51.870;6.160;2022-10-17T13:24:32;101988.53;;;19.82;100.00
4449;BME280;2237;51.870;6.160;2022-10-17T13:27:00;101992.56;;;19.91;100.00
4449;BME280;2237;51.870;6.160;2022-10-17T13:29:27;101993.72;;;19.84;100.00
4449;BME280;2237;51.870;6.160;2022-10-17T13:31:58;102003.53;;;19.82;100.00
4449;BME280;2237;51.870;6.160;2022-10-17T13:34:27;102006.53;;;19.72;100.00
4449;BME280;2237;51.870;6.160;2022-10-17T13:36:56;102004.66;;;19.54;100.00
4449;BME280;2237;51.870;6.160;2022-10-17T13:39:24;102006.00;;;19.43;100.00
4449;BME280;2237;51.870;6.160;2022-10-17T13:42:21;102012.16;;;19.43;100.00
4449;BME280;2237;51.870;6.160;2022-10-17T13:44:49;102012.56;;;19.33;100.00
4449;BME280;2237;51.870;6.160;2022-10-17T13:47:28;102019.50;;;19.35;100.00
4449;BME280;2237;51.870;6.160;2022-10-17T13:49:56;102027.72;;;19.28;100.00
4449;BME280;2237;51.870;6.160;2022-10-17T13:52:26;102025.38;;;19.20;100.00
4449;BME280;2237;51.870;6.160;2022-10-17T13:54:54;102039.50;;;19.19;100.00
4449;BME280;2237;51.870;6.160;2022-10-17T13:57:30;102038.16;;;19.09;100.00
4449;BME280;2237;51.870;6.160;2022-10-17T14:00:17;102044.56;;;19.02;100.00
4449;BME280;2237;51.870;6.160;2022-10-17T14:02:45;102041.78;;;19.06;100.00
4449;BME280;2237;51.870;6.160;2022-10-17T14:05:17;102045.84;;;19.15;100.00
4449;BME280;2237;51.870;6.160;2022-10-17T14:07:54;102052.94;;;19.13;100.00
4449;BME280;2237;51.870;6.160;2022-10-17T14:10:38;102045.88;;;19.13;100.00
4449;BME280;2237;51.870;6.160;2022-10-17T14:13:27;102048.13;;;19.24;100.00
4449;BME280;2237;51.870;6.160;2022-10-17T14:15:59;102040.44;;;19.41;100.00
4449;BME280;2237;51.870;6.160;2022-10-17T14:18:29;102047.56;;;19.61;100.00
4449;BME280;2237;51.870;6.160;2022-10-17T14:21:02;102043.06;;;19.63;100.00
4449;BME280;2237;51.870;6.160;2022-10-17T14:23:51;102055.03;;;19.71;100.00
4449;BME280;2237;51.870;6.160;2022-10-17T14:26:20;102049.13;;;19.87;100.00
4449;BME280;2237;51.870;6.160;2022-10-17T14:29:02;102062.63;;;20.01;100.00
4449;BME280;2237;51.870;6.160;2022-10-17T14:31:31;102056.47;;;20.00;100.00
4449;BME280;2237;51.870;6.160;2022-10-17T14:34:00;102061.78;;;20.00;100.00
4449;BME280;2237;51.870;6.160;2022-10-17T14:36:34;102080.28;;;20.00;100.00
4449;BME280;2237;51.870;6.160;2022-10-17T14:39:02;102079.25;;;20.04;100.00
4449;BME280;2237;51.870;6.160;2022-10-17T14:41:31;102073.09;;;20.04;100.00
4449;BME280;2237;51.870;6.160;2022-10-17T14:44:28;102075.06;;;19.99;100.00
4449;BME280;2237;51.870;6.160;2022-10-17T14:46:58;102083.31;;;19.91;100.00
4449;BME280;2237;51.870;6.160;2022-10-17T14:49:37;102097.63;;;19.86;100.00
4449;BME280;2237;51.870;6.160;2022-10-17T14:54:45;102112.56;;;19.65;100.00